Time;durP1;ratioP1;P1;durP2;ratioP2;P2;SDS_P1;SDS_P2;PMS_P1;PMS_P2;Temp;Humidity;BMP_temperature;BMP_pressure;BME280_temperature;BME280_humidity;BME280_pressure;Samples;Min_cycle;Max_cycle;Signal;HPM_P1;HPM_P2
2022/12/18 00:01:07;;;;;;;39.90;12.52;;;-4.80;99.90;;;;;;4995447;28;20089;-68
2022/12/18 00:03:33;;;;;;;40.53;12.10;;;-4.70;99.90;;;;;;4994064;28;20030;-68
2022/12/18 00:05:59;;;;;;;40.50;13.15;;;-4.70;99.90;;;;;;4995493;28;20023;-68
2022/12/18 00:08:25;;;;;;;49.58;13.18;;;-4.80;99.90;;;;;;4993928;28;20058;-68
2022/12/18 00:10:50;;;;;;;41.22;12.45;;;-4.70;99.90;;;;;;4993851;28;20068;-68
2022/12/18 00:13:16;;;;;;;41.63;13.52;;;-4.60;99.90;;;;;;4995095;28;20215;-68
2022/12/18 00:15:42;;;;;;;39.75;12.32;;;-4.60;99.90;;;;;;4996799;28;20096;-68
2022/12/18 00:18:08;;;;;;;40.28;12.27;;;-4.50;99.90;;;;;;4996139;28;20030;-68
2022/12/18 00:20:38;;;;;;;42.15;12.55;;;-4.50;99.90;;;;;;4993744;28;20033;-67
2022/12/18 00:23:05;;;;;;;45.78;14.27;;;-4.60;99.90;;;;;;4994402;28;20038;-68
2022/12/18 00:25:34;;;;;;;37.17;12.15;;;-4.60;99.90;;;;;;4992093;28;20030;-68
2022/12/18 00:28:00;;;;;;;42.83;11.85;;;-4.60;99.90;;;;;;4994046;28;20027;-68
2022/12/18 00:30:25;;;;;;;42.78;12.07;;;-4.70;99.90;;;;;;4993771;28;20022;-68
2022/12/18 00:32:51;;;;;;;38.78;11.63;;;-4.80;99.90;;;;;;4993863;28;20077;-68
2022/12/18 00:35:16;;;;;;;38.47;12.80;;;-4.90;99.90;;;;;;4992671;28;20117;-68
2022/12/18 00:37:42;;;;;;;35.85;11.55;;;-5.10;99.90;;;;;;4993853;28;20100;-68
2022/12/18 00:40:08;;;;;;;37.17;11.85;;;-5.10;99.90;;;;;;4994407;28;20023;-68
2022/12/18 00:45:17;;;;;;;37.05;11.40;;;-5.00;99.90;;;;;;4993764;28;20083;-68
2022/12/18 00:47:43;;;;;;;31.85;11.20;;;-5.10;99.90;;;;;;4993712;28;20026;-67
2022/12/18 00:50:09;;;;;;;35.10;12.15;;;-5.00;99.90;;;;;;4992228;28;20057;-67
2022/12/18 00:52:34;;;;;;;33.90;10.10;;;-5.10;99.90;;;;;;4992015;28;20026;-68
2022/12/18 00:55:00;;;;;;;33.42;10.02;;;-5.20;99.90;;;;;;4992130;28;20030;-68
2022/12/18 00:57:25;;;;;;;32.65;11.80;;;-5.20;99.90;;;;;;4992386;28;20019;-68
2022/12/18 00:59:51;;;;;;;37.45;11.57;;;-5.10;99.90;;;;;;4992168;28;20096;-68
2022/12/18 01:02:16;;;;;;;31.83;10.27;;;-5.30;99.90;;;;;;4993560;28;20555;-68
2022/12/18 01:04:42;;;;;;;29.33;9.65;;;-5.30;99.90;;;;;;4991956;28;20077;-68
2022/12/18 01:07:07;;;;;;;37.55;12.05;;;-5.30;99.90;;;;;;4991987;28;20027;-68
2022/12/18 01:09:34;;;;;;;33.50;12.13;;;-5.30;99.90;;;;;;4993295;28;20029;-68
2022/12/18 01:11:59;;;;;;;40.20;13.10;;;-5.20;99.90;;;;;;4995809;28;20073;-68
2022/12/18 01:14:25;;;;;;;42.00;11.93;;;-5.30;99.90;;;;;;4996380;28;20026;-68
2022/12/18 01:16:50;;;;;;;37.50;10.93;;;-5.40;99.90;;;;;;4996448;28;20018;-68
2022/12/18 01:19:16;;;;;;;47.42;12.95;;;-5.30;99.90;;;;;;4996710;28;20390;-68
2022/12/18 01:21:41;;;;;;;35.03;11.23;;;-5.10;99.90;;;;;;4995285;28;20033;-68
2022/12/18 01:24:07;;;;;;;43.67;12.82;;;-5.20;99.90;;;;;;4997796;28;20023;-68
2022/12/18 01:26:33;;;;;;;36.05;12.25;;;-5.10;99.90;;;;;;4996234;28;20037;-68
2022/12/18 01:28:59;;;;;;;41.97;12.98;;;-5.20;99.90;;;;;;4996430;28;20470;-68
2022/12/18 01:31:27;;;;;;;42.75;11.40;;;-5.20;99.90;;;;;;4995277;28;20023;-68
2022/12/18 01:34:11;;;;;;;38.33;11.32;;;-5.30;99.90;;;;;;4994993;28;20022;-68
2022/12/18 01:36:38;;;;;;;36.97;11.98;;;-5.20;99.90;;;;;;4996177;28;20026;-68
2022/12/18 01:39:13;;;;;;;41.88;12.70;;;-5.20;99.90;;;;;;4994950;28;20022;-68
2022/12/18 01:45:05;;;;;;;41.08;12.25;;;-5.20;99.90;;;;;;4996498;28;20038;-68
2022/12/18 01:47:33;;;;;;;47.78;11.90;;;-5.20;99.90;;;;;;4994661;28;20019;-68
2022/12/18 01:50:21;;;;;;;35.70;11.57;;;-5.30;99.90;;;;;;4994677;28;20057;-68
2022/12/18 01:52:57;;;;;;;39.45;12.05;;;-5.30;99.90;;;;;;4995625;28;20030;-68
2022/12/18 01:55:26;;;;;;;40.17;12.07;;;-5.60;99.90;;;;;;4996436;28;20037;-68
2022/12/18 01:57:58;;;;;;;32.15;11.23;;;-5.70;99.90;;;;;;4994456;28;20062;-68
2022/12/18 02:00:25;;;;;;;46.03;12.48;;;-5.90;99.90;;;;;;4994649;28;20429;-68
2022/12/18 02:02:51;;;;;;;42.42;12.10;;;-6.00;99.90;;;;;;4994334;28;20031;-68
2022/12/18 02:05:23;;;;;;;30.05;10.90;;;-6.10;99.90;;;;;;4994370;28;20052;-68
2022/12/18 02:07:57;;;;;;;37.28;12.13;;;-6.40;99.90;;;;;;4995596;28;20137;-68
2022/12/18 02:10:38;;;;;;;36.88;11.60;;;-6.30;99.90;;;;;;4995175;28;20022;-68
2022/12/18 02:13:15;;;;;;;35.00;13.10;;;-6.30;99.90;;;;;;4995564;28;20106;-68
2022/12/18 02:15:50;;;;;;;41.78;13.57;;;-6.30;99.90;;;;;;4995558;28;20037;-68
2022/12/18 02:18:24;;;;;;;48.85;12.50;;;-6.20;99.90;;;;;;4994099;28;20580;-68
2022/12/18 02:21:04;;;;;;;36.92;12.05;;;-6.20;99.90;;;;;;4993911;28;20037;-68
2022/12/18 02:24:02;;;;;;;43.45;13.23;;;-6.10;99.90;;;;;;4993736;28;20109;-69
2022/12/18 02:26:38;;;;;;;36.53;11.70;;;-6.00;99.90;;;;;;4986156;28;20085;-69
2022/12/18 02:29:05;;;;;;;43.03;12.82;;;-5.80;99.90;;;;;;4995794;28;20053;-67
2022/12/18 02:31:43;;;;;;;43.80;12.25;;;-5.70;99.90;;;;;;4995148;28;20113;-67
2022/12/18 02:34:11;;;;;;;36.75;10.38;;;-5.60;99.90;;;;;;4994896;28;20049;-67
2022/12/18 02:36:39;;;;;;;47.10;13.38;;;-5.70;99.90;;;;;;4994372;28;20018;-66
2022/12/18 02:39:08;;;;;;;44.97;13.35;;;-5.90;99.90;;;;;;4994210;28;20478;-66
2022/12/18 02:41:36;;;;;;;42.70;11.40;;;-5.80;99.90;;;;;;4993971;28;20022;-66
2022/12/18 02:44:10;;;;;;;41.33;12.73;;;-5.60;99.90;;;;;;4994074;28;20018;-66
2022/12/18 02:46:40;;;;;;;39.42;12.32;;;-5.70;99.90;;;;;;4996455;28;20034;-65
2022/12/18 02:49:21;;;;;;;40.30;11.80;;;-5.60;99.90;;;;;;4994456;28;20030;-66
2022/12/18 02:51:55;;;;;;;39.25;11.20;;;-5.60;99.90;;;;;;4994029;28;20089;-66
2022/12/18 02:54:29;;;;;;;38.22;12.27;;;-5.70;99.90;;;;;;4994685;28;20047;-66
2022/12/18 02:56:57;;;;;;;36.75;11.57;;;-5.80;99.90;;;;;;4995005;28;20085;-66
2022/12/18 02:59:40;;;;;;;42.45;13.35;;;-6.00;99.90;;;;;;4995161;28;20033;-66
2022/12/18 03:02:16;;;;;;;;;;;-6.40;99.90;;;;;;4994534;28;20045;-66
2022/12/18 03:05:05;;;;;;;35.22;10.38;;;-6.60;99.90;;;;;;4993747;28;19941;-66
2022/12/18 03:07:39;;;;;;;39.40;10.70;;;-6.80;99.90;;;;;;4994535;28;20023;-66
2022/12/18 03:10:08;;;;;;;36.05;13.50;;;-6.80;99.90;;;;;;4993508;28;20073;-66
2022/12/18 03:12:43;;;;;;;32.13;11.90;;;-6.80;99.90;;;;;;4993822;28;20129;-66
2022/12/18 03:15:16;;;;;;;38.92;10.40;;;-6.90;99.90;;;;;;4994219;28;20033;-66
2022/12/18 03:17:48;;;;;;;37.47;11.45;;;-7.00;99.90;;;;;;4994369;28;20037;-66
2022/12/18 03:20:19;;;;;;;36.47;11.00;;;-7.10;99.90;;;;;;4994308;28;20052;-66
2022/12/18 03:22:48;;;;;;;41.22;11.15;;;-7.10;99.90;;;;;;4993218;28;20054;-66
2022/12/18 03:25:16;;;;;;;32.90;11.02;;;-7.00;99.90;;;;;;4994073;28;20030;-66
2022/12/18 03:27:47;;;;;;;38.85;12.82;;;-6.90;99.90;;;;;;4994082;28;20367;-66
2022/12/18 03:30:14;;;;;;;41.90;13.03;;;-6.80;99.90;;;;;;4992846;28;20033;-66
2022/12/18 03:33:10;;;;;;;36.25;11.20;;;-6.80;99.90;;;;;;4993976;28;20298;-67
2022/12/18 03:35:41;;;;;;;45.72;12.45;;;-6.90;99.90;;;;;;4994241;28;20487;-66
2022/12/18 03:38:07;;;;;;;35.87;11.80;;;-7.30;99.90;;;;;;4994599;28;20037;-66
2022/12/18 03:40:59;;;;;;;33.00;9.75;;;-7.30;99.90;;;;;;4993436;28;20035;-66
2022/12/18 03:43:34;;;;;;;;;;;-7.60;99.90;;;;;;4992992;28;20034;-66
2022/12/18 03:46:08;;;;;;;35.55;11.73;;;-7.50;99.90;;;;;;4993037;28;20012;-67
2022/12/18 03:48:43;;;;;;;35.25;11.05;;;-7.60;99.90;;;;;;4993134;28;20065;-67
2022/12/18 03:51:18;;;;;;;32.03;9.82;;;-7.50;99.90;;;;;;4994015;28;20443;-67
2022/12/18 03:53:53;;;;;;;35.85;11.57;;;-7.40;99.90;;;;;;4992454;28;20033;-68
2022/12/18 03:56:22;;;;;;;33.40;10.70;;;-7.40;99.90;;;;;;4992965;28;20031;-68
2022/12/18 03:58:50;;;;;;;35.50;12.15;;;-7.40;99.90;;;;;;4992519;28;20040;-69
2022/12/18 04:01:17;;;;;;;32.30;11.00;;;-7.40;99.90;;;;;;4993920;28;20022;-69
2022/12/18 04:03:44;;;;;;;39.60;11.30;;;-7.40;99.90;;;;;;4993058;28;20118;-69
2022/12/18 04:06:11;;;;;;;36.63;11.57;;;-7.40;99.90;;;;;;4992190;28;20058;-69
2022/12/18 04:08:38;;;;;;;36.05;12.30;;;-7.40;99.90;;;;;;4993100;28;20051;-69
2022/12/18 04:11:04;;;;;;;36.85;11.32;;;-7.50;99.90;;;;;;4993854;28;20018;-69
2022/12/18 04:13:34;;;;;;;33.15;10.82;;;-7.40;99.90;;;;;;4993381;28;20026;-69
2022/12/18 04:15:59;;;;;;;36.30;11.93;;;-7.30;99.90;;;;;;4993117;28;20027;-69
2022/12/18 04:18:25;;;;;;;42.95;11.27;;;-7.30;99.90;;;;;;4992522;28;20041;-69
2022/12/18 04:20:51;;;;;;;34.55;10.98;;;-7.20;99.90;;;;;;4992266;28;20066;-69
2022/12/18 04:23:16;;;;;;;33.80;11.02;;;-7.20;99.90;;;;;;4992109;28;20089;-69
2022/12/18 04:25:42;;;;;;;32.45;9.48;;;-7.10;99.90;;;;;;4992315;28;20090;-69
2022/12/18 04:28:07;;;;;;;28.08;8.68;;;-7.30;99.90;;;;;;4992318;28;20026;-69
2022/12/18 04:30:33;;;;;;;29.00;9.45;;;-7.20;99.90;;;;;;4994107;28;20101;-69
2022/12/18 04:32:58;;;;;;;28.30;10.45;;;-7.20;99.90;;;;;;4994070;28;20088;-69
2022/12/18 04:35:24;;;;;;;31.77;10.07;;;-7.20;99.90;;;;;;4993474;28;20026;-69
2022/12/18 04:37:49;;;;;;;33.65;8.82;;;-7.10;99.90;;;;;;4992211;28;20062;-69
2022/12/18 04:40:15;;;;;;;31.15;11.45;;;-7.20;99.90;;;;;;4992398;28;20081;-69
2022/12/18 04:42:41;;;;;;;35.17;11.98;;;-7.20;99.90;;;;;;4991985;28;20023;-69
2022/12/18 04:45:07;;;;;;;36.00;10.30;;;-7.40;99.90;;;;;;4994730;28;20037;-69
2022/12/18 04:47:33;;;;;;;29.52;9.98;;;-7.60;99.90;;;;;;4997109;28;20035;-69
2022/12/18 04:49:58;;;;;;;37.28;11.15;;;-7.60;99.90;;;;;;4996032;28;20027;-69
2022/12/18 04:52:24;;;;;;;40.15;11.32;;;-7.60;99.90;;;;;;4996091;28;20113;-69
2022/12/18 04:54:49;;;;;;;35.30;10.85;;;-7.70;99.90;;;;;;4996630;28;20022;-68
2022/12/18 04:57:15;;;;;;;30.23;9.68;;;-7.70;99.90;;;;;;4995740;28;20046;-69
2022/12/18 04:59:40;;;;;;;35.40;10.40;;;-7.90;99.90;;;;;;4996012;28;20026;-69
2022/12/18 05:02:06;;;;;;;30.95;10.20;;;-7.90;99.90;;;;;;4997049;28;20045;-69
2022/12/18 05:04:31;;;;;;;34.13;11.13;;;-7.70;99.90;;;;;;4995973;28;20029;-69
2022/12/18 05:06:57;;;;;;;25.52;10.40;;;-7.80;99.90;;;;;;5002416;28;20023;-69
2022/12/18 05:09:23;;;;;;;29.65;9.13;;;-7.80;99.90;;;;;;4995576;28;20050;-69
2022/12/18 05:11:48;;;;;;;33.05;9.90;;;-7.80;99.90;;;;;;4995375;28;20033;-68
2022/12/18 05:14:14;;;;;;;38.80;10.23;;;-7.60;99.90;;;;;;4996820;28;20027;-68
2022/12/18 05:16:40;;;;;;;32.83;9.60;;;-7.40;99.90;;;;;;4996731;28;20464;-68
2022/12/18 05:19:05;;;;;;;32.42;9.35;;;-7.40;99.90;;;;;;4995386;28;20088;-68
2022/12/18 05:21:31;;;;;;;30.40;9.55;;;-7.60;99.90;;;;;;4995303;28;20046;-68
2022/12/18 05:23:56;;;;;;;27.63;9.32;;;-7.60;99.90;;;;;;4995572;28;20372;-68
2022/12/18 05:26:22;;;;;;;35.65;10.52;;;-7.40;99.90;;;;;;4996641;28;20046;-68
2022/12/18 05:28:48;;;;;;;34.60;10.07;;;-7.40;99.90;;;;;;4996656;28;20027;-68
2022/12/18 05:31:14;;;;;;;33.58;9.57;;;-7.20;99.90;;;;;;4995056;28;20029;-68
2022/12/18 05:33:39;;;;;;;41.55;12.27;;;-7.30;99.90;;;;;;4996310;28;20022;-68
2022/12/18 05:36:07;;;;;;;34.08;10.75;;;-7.40;99.90;;;;;;4995359;28;20390;-69
2022/12/18 05:38:35;;;;;;;33.45;9.82;;;-7.50;99.90;;;;;;4995737;28;20031;-69
2022/12/18 05:41:01;;;;;;;30.58;11.30;;;-7.90;99.90;;;;;;4994823;28;20062;-69
2022/12/18 05:43:28;;;;;;;38.38;10.82;;;-8.10;99.90;;;;;;4994692;28;20046;-69
2022/12/18 05:45:55;;;;;;;32.53;10.02;;;-8.10;99.90;;;;;;4994676;28;20027;-69
2022/12/18 05:48:21;;;;;;;32.45;10.75;;;-8.10;99.90;;;;;;4996208;28;20015;-68
2022/12/18 05:50:48;;;;;;;28.80;9.77;;;-8.20;99.90;;;;;;4994736;28;20502;-68
2022/12/18 05:53:16;;;;;;;26.30;9.55;;;-8.30;99.90;;;;;;4995970;28;20026;-69
2022/12/18 05:55:43;;;;;;;37.67;9.13;;;-8.30;99.90;;;;;;4994144;28;20124;-69
2022/12/18 05:58:10;;;;;;;28.17;9.25;;;-8.40;99.90;;;;;;4995076;28;20101;-69
2022/12/18 06:00:42;;;;;;;25.58;8.98;;;-8.50;99.90;;;;;;4994424;28;20205;-69
2022/12/18 06:03:08;;;;;;;;;;;-8.50;99.90;;;;;;4996170;28;20132;-68
2022/12/18 06:05:43;;;;;;;27.95;9.93;;;-8.50;99.90;;;;;;4995122;28;19915;-69
2022/12/18 06:08:09;;;;;;;24.73;8.20;;;-8.60;99.90;;;;;;4994481;28;20028;-68
2022/12/18 06:10:34;;;;;;;28.90;9.57;;;-8.40;99.90;;;;;;4994428;28;20022;-69
2022/12/18 06:13:01;;;;;;;29.75;9.52;;;-8.30;99.90;;;;;;4994218;28;20026;-69
2022/12/18 06:15:26;;;;;;;27.48;9.70;;;-8.20;99.90;;;;;;4994502;28;20037;-69
2022/12/18 06:17:52;;;;;;;32.42;10.20;;;-8.10;99.90;;;;;;4993996;28;20023;-69
2022/12/18 06:20:18;;;;;;;31.88;11.13;;;-8.10;99.90;;;;;;4990974;28;20027;-69
2022/12/18 06:22:44;;;;;;;35.45;10.88;;;-8.00;99.90;;;;;;4976260;28;20121;-69
2022/12/18 06:25:10;;;;;;;27.35;9.45;;;-7.90;99.90;;;;;;4990934;28;20122;-69
2022/12/18 06:27:35;;;;;;;30.30;9.43;;;-7.80;99.90;;;;;;4990834;28;20023;-69
2022/12/18 06:30:02;;;;;;;28.25;9.48;;;-7.80;99.90;;;;;;4990707;28;20023;-69
2022/12/18 06:32:27;;;;;;;35.78;9.40;;;-7.60;99.90;;;;;;4991114;28;20134;-68
2022/12/18 06:34:55;;;;;;;21.42;7.63;;;-7.70;99.90;;;;;;4990659;28;20109;-69
2022/12/18 06:37:20;;;;;;;29.60;9.05;;;-7.60;99.90;;;;;;4990932;28;20030;-69
2022/12/18 06:39:46;;;;;;;25.42;9.43;;;-7.40;99.90;;;;;;4990546;28;20034;-69
2022/12/18 06:42:11;;;;;;;31.45;10.82;;;-7.60;99.90;;;;;;4974230;28;20043;-69
2022/12/18 06:44:37;;;;;;;29.48;9.82;;;-7.90;99.90;;;;;;4990316;28;20461;-69
2022/12/18 06:47:03;;;;;;;25.58;8.90;;;-7.80;99.90;;;;;;4990389;28;20046;-69
2022/12/18 06:49:28;;;;;;;23.02;9.70;;;-7.80;99.90;;;;;;4974161;28;20023;-69
2022/12/18 06:51:54;;;;;;;29.10;9.48;;;-7.70;99.90;;;;;;4990564;28;20030;-69
2022/12/18 06:54:19;;;;;;;30.95;9.93;;;-7.70;99.90;;;;;;4975391;28;20027;-69
2022/12/18 06:56:45;;;;;;;30.10;9.82;;;-7.40;99.90;;;;;;4974489;28;20023;-69
2022/12/18 06:59:12;;;;;;;30.75;10.45;;;-7.30;99.90;;;;;;4990388;28;20023;-69
2022/12/18 07:01:38;;;;;;;23.42;8.00;;;-7.40;99.90;;;;;;4975134;28;20035;-68
2022/12/18 07:04:03;;;;;;;32.50;9.38;;;-7.50;99.90;;;;;;4990154;28;20041;-68
2022/12/18 07:06:29;;;;;;;28.90;10.00;;;-7.60;99.90;;;;;;4974980;28;20031;-68
2022/12/18 07:08:55;;;;;;;33.13;9.18;;;-7.70;99.90;;;;;;4974759;28;20041;-68
2022/12/18 07:11:20;;;;;;;25.10;9.07;;;-7.90;99.90;;;;;;4989966;28;20095;-68
2022/12/18 07:13:46;;;;;;;24.85;8.27;;;-7.90;99.90;;;;;;4989809;28;20086;-68
2022/12/18 07:16:15;;;;;;;25.70;8.38;;;-7.90;99.90;;;;;;4990179;28;20104;-68
2022/12/18 07:18:41;;;;;;;26.73;9.02;;;-7.80;99.90;;;;;;4990254;28;20027;-68
2022/12/18 07:21:09;;;;;;;23.05;8.55;;;-7.80;99.90;;;;;;4973605;28;20026;-68
2022/12/18 07:23:35;;;;;;;26.75;8.90;;;-7.70;99.90;;;;;;4974652;28;20046;-68
2022/12/18 07:26:05;;;;;;;28.35;9.27;;;-7.80;99.90;;;;;;4974725;28;20023;-68
2022/12/18 07:28:33;;;;;;;25.73;8.85;;;-8.00;99.90;;;;;;4974818;28;20027;-68
2022/12/18 07:31:02;;;;;;;23.65;7.80;;;-8.00;99.90;;;;;;4989673;28;20034;-68
2022/12/18 07:33:28;;;;;;;22.15;8.23;;;-8.00;99.90;;;;;;4989886;28;20027;-68
2022/12/18 07:35:53;;;;;;;34.13;9.27;;;-8.20;99.90;;;;;;4973312;28;20118;-69
2022/12/18 07:38:19;;;;;;;29.88;9.13;;;-8.30;99.90;;;;;;4974834;28;20023;-69
2022/12/18 07:40:44;;;;;;;30.98;10.07;;;-8.20;99.90;;;;;;4974177;28;20479;-69
2022/12/18 07:43:10;;;;;;;28.05;8.27;;;-8.30;99.90;;;;;;4974704;28;20023;-69
2022/12/18 07:45:36;;;;;;;25.90;9.13;;;-8.30;99.90;;;;;;4973150;28;20042;-69
2022/12/18 07:48:01;;;;;;;26.52;9.80;;;-8.30;99.90;;;;;;4974475;28;20081;-69
2022/12/18 07:50:45;;;;;;;29.40;9.82;;;-8.40;99.90;;;;;;4974607;28;20019;-68
2022/12/18 07:53:11;;;;;;;27.17;9.52;;;-8.30;99.90;;;;;;4974366;28;20141;-68
2022/12/18 07:55:37;;;;;;;26.23;8.60;;;-8.30;99.90;;;;;;4989525;28;20491;-68
2022/12/18 07:58:03;;;;;;;26.23;8.45;;;-8.00;99.90;;;;;;4989559;28;20034;-68
2022/12/18 08:00:30;;;;;;;25.02;7.93;;;-7.70;99.90;;;;;;4989491;28;20030;-68
2022/12/18 08:02:56;;;;;;;27.35;9.50;;;-7.70;99.90;;;;;;4989137;28;20078;-68
2022/12/18 08:05:22;;;;;;;28.75;10.23;;;-7.60;99.90;;;;;;4989078;28;20023;-68
2022/12/18 08:07:47;;;;;;;25.42;7.95;;;-7.60;99.90;;;;;;4974522;28;20034;-68
2022/12/18 08:10:13;;;;;;;28.73;8.60;;;-7.70;99.90;;;;;;4989946;28;20463;-68
2022/12/18 08:12:39;;;;;;;31.42;10.60;;;-7.60;99.90;;;;;;4973198;28;20029;-68
2022/12/18 08:15:05;;;;;;;28.75;8.70;;;-7.50;99.90;;;;;;4974158;28;20434;-68
2022/12/18 08:17:31;;;;;;;33.42;9.80;;;-7.40;99.90;;;;;;4988908;28;20031;-68
2022/12/18 08:19:56;;;;;;;27.92;9.90;;;-7.30;99.90;;;;;;4975379;28;20054;-68
2022/12/18 08:22:22;;;;;;;27.08;9.75;;;-7.50;99.90;;;;;;4978138;28;20407;-69
2022/12/18 08:24:47;;;;;;;25.80;9.43;;;-7.60;99.90;;;;;;4992859;28;20078;-69
2022/12/18 08:27:13;;;;;;;24.15;7.82;;;-7.80;99.90;;;;;;4992967;28;20019;-69
2022/12/18 08:29:38;;;;;;;34.28;9.55;;;-7.70;99.90;;;;;;4993312;28;20046;-69
2022/12/18 08:32:04;;;;;;;29.45;8.73;;;-7.50;99.90;;;;;;4977857;28;20019;-69
2022/12/18 08:34:30;;;;;;;32.83;9.75;;;-7.50;99.90;;;;;;4992825;28;20023;-68
2022/12/18 08:36:55;;;;;;;34.17;10.30;;;-7.40;99.90;;;;;;4978181;28;20041;-68
2022/12/18 08:39:20;;;;;;;29.85;9.30;;;-7.40;99.90;;;;;;4992833;28;20060;-68
2022/12/18 08:44:37;;;;;;;22.73;8.95;;;-7.20;99.90;;;;;;4993086;28;20027;-68
2022/12/18 08:44:37;;;;;;;25.45;8.43;;;-7.00;99.90;;;;;;4977794;28;20038;-68
2022/12/18 08:47:03;;;;;;;26.90;9.85;;;-6.70;99.90;;;;;;4993444;28;20034;-69
2022/12/18 08:49:29;;;;;;;29.88;8.10;;;-6.80;99.90;;;;;;4992810;28;20035;-69
2022/12/18 08:51:56;;;;;;;33.58;9.50;;;-6.60;99.90;;;;;;4993484;28;20026;-68
2022/12/18 08:54:23;;;;;;;23.92;8.45;;;-6.60;99.90;;;;;;4992610;28;20033;-68
2022/12/18 08:56:49;;;;;;;25.77;9.52;;;-6.40;99.90;;;;;;4977569;28;20069;-68
2022/12/18 08:59:15;;;;;;;28.73;8.50;;;-6.30;99.90;;;;;;4976175;28;20525;-68
2022/12/18 09:01:41;;;;;;;25.15;10.00;;;-6.30;99.90;;;;;;4992346;28;20122;-68
2022/12/18 09:04:08;;;;;;;23.42;8.57;;;-6.30;99.90;;;;;;4992494;28;20121;-68
2022/12/18 09:06:34;;;;;;;24.13;8.77;;;-6.50;99.90;;;;;;4992198;28;20062;-69
2022/12/18 09:08:59;;;;;;;27.50;10.15;;;-6.20;99.90;;;;;;4977426;28;20023;-68
2022/12/18 09:11:26;;;;;;;28.02;10.10;;;-6.10;99.90;;;;;;4978111;28;20034;-68
2022/12/18 09:13:53;;;;;;;27.48;8.85;;;-5.90;99.90;;;;;;4993642;28;20050;-66
2022/12/18 09:16:19;;;;;;;31.05;9.82;;;-5.70;99.90;;;;;;4978526;28;20027;-66
2022/12/18 09:18:45;;;;;;;24.30;9.23;;;-5.70;99.90;;;;;;4992285;28;20031;-66
2022/12/18 09:21:14;;;;;;;26.88;8.25;;;-5.60;99.90;;;;;;4992556;28;20030;-66
2022/12/18 09:23:40;;;;;;;39.65;12.07;;;-5.60;99.90;;;;;;4991920;28;20053;-66
2022/12/18 09:26:05;;;;;;;28.02;10.10;;;-5.50;99.90;;;;;;4977016;28;20039;-66
2022/12/18 09:28:31;;;;;;;28.38;9.68;;;-5.40;99.90;;;;;;4992044;28;20019;-66
2022/12/18 09:30:57;;;;;;;27.58;9.18;;;-5.30;99.90;;;;;;4976766;28;20129;-66
2022/12/18 09:33:22;;;;;;;23.77;10.30;;;-5.40;99.90;;;;;;4977090;28;20023;-66
2022/12/18 09:35:48;;;;;;;25.65;9.77;;;-5.30;99.90;;;;;;4992072;28;20030;-66
2022/12/18 09:38:18;;;;;;;25.38;9.85;;;-5.20;99.90;;;;;;4991834;28;20059;-66
2022/12/18 09:40:48;;;;;;;29.55;9.73;;;-5.10;99.90;;;;;;4992490;28;20030;-66
2022/12/18 09:43:23;;;;;;;26.10;8.48;;;-5.00;99.90;;;;;;4992613;28;20049;-66
2022/12/18 09:45:58;;;;;;;22.83;9.60;;;-5.00;99.90;;;;;;4991549;28;20055;-66
2022/12/18 09:48:32;;;;;;;27.08;10.38;;;-4.90;99.90;;;;;;4977024;28;20114;-66
2022/12/18 09:51:03;;;;;;;25.02;10.73;;;-5.10;99.90;;;;;;4976552;28;20509;-66
2022/12/18 09:53:32;;;;;;;28.42;9.65;;;-5.00;99.90;;;;;;4976705;28;20031;-66
2022/12/18 09:56:01;;;;;;;25.52;9.50;;;-4.90;99.90;;;;;;4991393;28;20034;-66
2022/12/18 09:58:30;;;;;;;25.15;9.32;;;-4.70;99.90;;;;;;4976400;28;20023;-66
2022/12/18 10:00:56;;;;;;;27.77;10.18;;;-4.50;99.90;;;;;;4976481;28;20027;-66
2022/12/18 10:03:22;;;;;;;23.10;9.13;;;-4.40;99.90;;;;;;4991292;28;20034;-66
2022/12/18 10:06:13;;;;;;;24.80;9.85;;;-4.30;99.90;;;;;;4991265;28;20058;-66
2022/12/18 10:09:15;;;;;;;25.90;9.25;;;-4.10;99.90;;;;;;4991618;28;20498;-66
2022/12/18 10:12:03;;;;;;;26.98;9.43;;;-4.10;99.90;;;;;;4976446;28;20062;-67
2022/12/18 10:15:05;;;;;;;28.80;9.45;;;-3.90;99.90;;;;;;4976198;28;20030;-67
2022/12/18 10:17:40;;;;;;;;;;;-3.80;99.90;;;;;;4977066;28;20074;-67
2022/12/18 10:20:15;;;;;;;24.15;9.48;;;-3.80;99.90;;;;;;4976236;28;20000;-68
2022/12/18 10:22:41;;;;;;;26.10;10.75;;;-3.70;99.90;;;;;;4976128;28;20070;-68
2022/12/18 10:25:15;;;;;;;23.55;9.05;;;-3.60;99.90;;;;;;4991701;28;20031;-67
2022/12/18 10:27:41;;;;;;;27.23;9.82;;;-3.40;99.90;;;;;;4976652;28;20027;-67
2022/12/18 10:30:18;;;;;;;24.58;9.20;;;-3.30;99.90;;;;;;4990919;28;20034;-68
2022/12/18 10:32:44;;;;;;;26.80;9.45;;;-3.10;99.90;;;;;;4976175;28;20075;-68
2022/12/18 10:35:21;;;;;;;22.85;9.13;;;-3.00;99.90;;;;;;4974807;28;20135;-69
2022/12/18 10:38:29;;;;;;;24.95;10.25;;;-2.80;99.90;;;;;;4991737;28;20081;-69
2022/12/18 10:40:58;;;;;;;31.55;11.23;;;-2.80;99.90;;;;;;4973588;28;20026;-68
2022/12/18 10:43:27;;;;;;;31.15;10.48;;;-2.80;99.90;;;;;;4973554;28;20062;-68
2022/12/18 10:45:58;;;;;;;30.00;10.18;;;-2.70;99.90;;;;;;4958044;28;20038;-68
2022/12/18 10:48:24;;;;;;;25.30;9.88;;;-2.50;99.90;;;;;;4958155;28;20023;-68
2022/12/18 10:50:51;;;;;;;27.50;8.50;;;-2.50;99.90;;;;;;4973440;28;20031;-68
2022/12/18 10:53:23;;;;;;;26.33;9.45;;;-2.40;99.90;;;;;;4957060;28;20069;-68
2022/12/18 10:55:49;;;;;;;28.00;10.85;;;-2.30;99.90;;;;;;4973472;28;20027;-68
2022/12/18 10:58:24;;;;;;;25.75;10.30;;;-2.40;99.90;;;;;;4973202;28;20082;-68
2022/12/18 11:01:12;;;;;;;28.95;10.30;;;-2.40;99.90;;;;;;4973276;28;20030;-68
2022/12/18 11:03:57;;;;;;;27.92;9.85;;;-2.30;99.90;;;;;;4973475;28;20027;-68
2022/12/18 11:06:24;;;;;;;25.80;10.70;;;-2.20;99.90;;;;;;4973244;28;20027;-68
2022/12/18 11:09:10;;;;;;;20.27;9.98;;;-2.20;99.90;;;;;;4972967;28;20114;-68
2022/12/18 11:11:37;;;;;;;24.25;9.35;;;-2.10;99.90;;;;;;4980268;28;20041;-68
2022/12/18 11:14:05;;;;;;;30.55;10.48;;;-2.10;99.90;;;;;;4990321;28;20027;-68
2022/12/18 11:16:42;;;;;;;29.40;10.27;;;-2.10;99.90;;;;;;4974932;28;20038;-68
2022/12/18 11:19:21;;;;;;;29.88;10.50;;;-2.00;99.90;;;;;;4975045;28;20102;-68
2022/12/18 11:21:46;;;;;;;35.38;12.75;;;-2.00;99.90;;;;;;4990429;28;20033;-68
2022/12/18 11:24:28;;;;;;;26.33;10.20;;;-2.20;99.90;;;;;;4975151;28;20109;-68
2022/12/18 11:26:54;;;;;;;26.10;10.27;;;-2.20;99.90;;;;;;4990465;28;20035;-68
2022/12/18 11:29:28;;;;;;;25.17;11.00;;;-2.00;99.90;;;;;;4989642;28;20034;-68
2022/12/18 11:32:31;;;;;;;26.13;10.27;;;-2.00;99.90;;;;;;4974767;28;20023;-68
2022/12/18 11:35:10;;;;;;;31.30;12.07;;;-1.90;99.90;;;;;;4990541;28;20019;-68
2022/12/18 11:37:36;;;;;;;25.88;11.68;;;-2.10;99.90;;;;;;4973353;28;20023;-68
2022/12/18 11:40:10;;;;;;;24.30;10.48;;;-1.90;99.90;;;;;;4974672;28;20031;-68
2022/12/18 11:42:42;;;;;;;22.90;9.18;;;-1.80;99.90;;;;;;4990495;28;20450;-68
2022/12/18 11:45:11;;;;;;;28.73;10.10;;;-1.60;99.90;;;;;;4989563;28;20118;-68
2022/12/18 11:48:03;;;;;;;32.95;10.48;;;-1.40;99.90;;;;;;4989319;28;20031;-68
2022/12/18 11:50:51;;;;;;;30.75;10.55;;;-1.10;99.90;;;;;;4989583;28;20082;-68
2022/12/18 11:53:18;;;;;;;26.60;9.75;;;-1.10;99.90;;;;;;4974112;28;20031;-68
2022/12/18 11:56:02;;;;;;;29.52;11.23;;;-1.00;99.90;;;;;;4988542;28;20038;-68
2022/12/18 11:58:51;;;;;;;20.15;9.48;;;-1.00;99.90;;;;;;4989567;28;20019;-68
2022/12/18 12:01:50;;;;;;;31.05;11.32;;;-1.00;99.90;;;;;;4974507;28;20027;-68
2022/12/18 12:04:33;;;;;;;25.45;10.18;;;-1.20;99.90;;;;;;4974951;28;20027;-68
2022/12/18 12:07:24;;;;;;;32.55;10.38;;;-1.50;99.90;;;;;;4989228;28;20054;-67
2022/12/18 12:10:11;;;;;;;31.63;13.00;;;-1.60;99.90;;;;;;4974087;28;20027;-67
2022/12/18 12:12:53;;;;;;;30.17;11.15;;;-1.50;99.90;;;;;;4989203;28;20029;-68
2022/12/18 12:15:35;;;;;;;34.00;13.48;;;-1.30;99.90;;;;;;4990094;28;20037;-68
2022/12/18 12:18:31;;;;;;;33.92;13.68;;;-1.20;99.90;;;;;;4972962;28;20486;-68
2022/12/18 12:21:21;;;;;;;39.63;14.52;;;-1.00;99.90;;;;;;4973931;28;20078;-67
2022/12/18 12:24:02;;;;;;;38.35;14.30;;;-0.90;99.90;;;;;;4989653;28;20045;-68
2022/12/18 12:26:38;;;;;;;47.45;15.30;;;-0.90;99.90;;;;;;4974462;28;20058;-67
2022/12/18 12:29:38;;;;;;;42.58;14.63;;;-0.70;99.90;;;;;;4974315;28;20025;-68
2022/12/18 12:32:45;;;;;;;40.65;14.80;;;-0.60;99.90;;;;;;4974371;28;20023;-68
2022/12/18 12:35:25;;;;;;;42.50;16.00;;;-0.60;99.90;;;;;;4973684;28;20038;-68
2022/12/18 12:38:10;;;;;;;55.55;19.15;;;-0.70;99.90;;;;;;4974426;28;20029;-68
2022/12/18 12:40:44;;;;;;;57.28;18.13;;;-0.90;99.90;;;;;;4990407;28;20031;-68
2022/12/18 12:43:15;;;;;;;42.53;15.77;;;-1.00;99.90;;;;;;4988991;28;20034;-67
2022/12/18 12:46:08;;;;;;;38.75;14.95;;;-1.30;99.90;;;;;;4974276;28;20034;-68
2022/12/18 12:48:39;;;;;;;54.83;19.40;;;-1.30;99.90;;;;;;4989043;28;20545;-67
2022/12/18 12:51:19;;;;;;;44.80;15.50;;;-1.40;99.90;;;;;;4989607;28;20118;-68
2022/12/18 12:53:45;;;;;;;51.95;18.80;;;-1.90;99.90;;;;;;4989677;28;20034;-67
2022/12/18 12:56:13;;;;;;;34.95;13.05;;;-2.20;99.90;;;;;;4989097;28;20023;-67